sensor_id;sensor_type;location;lat;lon;timestamp;temperature;humidity
50989;DHT22;37008;52.210;21.112;2023-02-20T00:00:23;1.10;95.20
50989;DHT22;37008;52.210;21.112;2023-02-20T00:02:49;1.00;96.10
50989;DHT22;37008;52.210;21.112;2023-02-20T00:05:15;1.00;97.40
50989;DHT22;37008;52.210;21.112;2023-02-20T00:07:41;1.00;98.30
50989;DHT22;37008;52.210;21.112;2023-02-20T00:10:07;1.00;98.70
50989;DHT22;37008;52.210;21.112;2023-02-20T00:12:32;1.00;99.20
50989;DHT22;37008;52.210;21.112;2023-02-20T00:14:58;1.00;99.80
50989;DHT22;37008;52.210;21.112;2023-02-20T00:17:23;1.00;99.90
50989;DHT22;37008;52.210;21.112;2023-02-20T00:19:49;1.00;99.90
50989;DHT22;37008;52.210;21.112;2023-02-20T00:22:14;1.00;99.90
50989;DHT22;37008;52.210;21.112;2023-02-20T00:24:41;1.10;99.90
50989;DHT22;37008;52.210;21.112;2023-02-20T00:27:07;1.10;99.90
50989;DHT22;37008;52.210;21.112;2023-02-20T00:29:32;1.20;99.90
50989;DHT22;37008;52.210;21.112;2023-02-20T00:31:58;1.20;99.90
50989;DHT22;37008;52.210;21.112;2023-02-20T00:34:26;1.20;99.90
50989;DHT22;37008;52.210;21.112;2023-02-20T00:36:52;1.20;99.90
50989;DHT22;37008;52.210;21.112;2023-02-20T00:39:17;1.20;99.90
50989;DHT22;37008;52.210;21.112;2023-02-20T00:41:43;1.30;99.90
50989;DHT22;37008;52.210;21.112;2023-02-20T00:44:09;1.30;99.40
50989;DHT22;37008;52.210;21.112;2023-02-20T00:46:34;1.30;99.10
50989;DHT22;37008;52.210;21.112;2023-02-20T00:49:00;1.30;98.80
50989;DHT22;37008;52.210;21.112;2023-02-20T00:51:26;1.30;98.50
50989;DHT22;37008;52.210;21.112;2023-02-20T00:53:52;1.40;98.30
50989;DHT22;37008;52.210;21.112;2023-02-20T00:56:18;1.40;97.90
50989;DHT22;37008;52.210;21.112;2023-02-20T00:58:43;1.40;97.60
50989;DHT22;37008;52.210;21.112;2023-02-20T01:01:09;1.40;97.20
50989;DHT22;37008;52.210;21.112;2023-02-20T01:03:35;1.40;97.30
50989;DHT22;37008;52.210;21.112;2023-02-20T01:06:00;1.40;96.60
50989;DHT22;37008;52.210;21.112;2023-02-20T01:08:26;1.40;96.50
50989;DHT22;37008;52.210;21.112;2023-02-20T01:10:51;1.40;96.00
50989;DHT22;37008;52.210;21.112;2023-02-20T01:13:17;1.50;95.70
50989;DHT22;37008;52.210;21.112;2023-02-20T01:15:43;1.50;95.60
50989;DHT22;37008;52.210;21.112;2023-02-20T01:18:09;1.40;95.40
50989;DHT22;37008;52.210;21.112;2023-02-20T01:20:34;1.40;95.30
50989;DHT22;37008;52.210;21.112;2023-02-20T01:23:00;1.40;95.30
50989;DHT22;37008;52.210;21.112;2023-02-20T01:25:26;1.40;95.20
50989;DHT22;37008;52.210;21.112;2023-02-20T01:27:51;1.40;95.20
50989;DHT22;37008;52.210;21.112;2023-02-20T01:30:17;1.40;95.20
50989;DHT22;37008;52.210;21.112;2023-02-20T01:32:43;1.30;95.30
50989;DHT22;37008;52.210;21.112;2023-02-20T01:35:09;1.30;95.40
50989;DHT22;37008;52.210;21.112;2023-02-20T01:37:35;1.30;95.40
50989;DHT22;37008;52.210;21.112;2023-02-20T01:40:00;1.20;95.50
50989;DHT22;37008;52.210;21.112;2023-02-20T01:42:29;1.20;95.60
50989;DHT22;37008;52.210;21.112;2023-02-20T01:45:10;1.20;95.70
50989;DHT22;37008;52.210;21.112;2023-02-20T01:47:39;1.20;95.80
50989;DHT22;37008;52.210;21.112;2023-02-20T01:50:05;1.30;95.70
50989;DHT22;37008;52.210;21.112;2023-02-20T01:52:33;1.30;95.50
50989;DHT22;37008;52.210;21.112;2023-02-20T01:55:08;1.30;95.40
50989;DHT22;37008;52.210;21.112;2023-02-20T01:57:38;1.40;95.30
50989;DHT22;37008;52.210;21.112;2023-02-20T02:00:15;1.40;95.20
50989;DHT22;37008;52.210;21.112;2023-02-20T02:02:47;1.50;95.20
50989;DHT22;37008;52.210;21.112;2023-02-20T02:05:15;1.40;95.00
50989;DHT22;37008;52.210;21.112;2023-02-20T02:07:41;1.40;95.00
50989;DHT22;37008;52.210;21.112;2023-02-20T02:10:17;1.50;95.00
50989;DHT22;37008;52.210;21.112;2023-02-20T02:12:46;1.50;95.00
50989;DHT22;37008;52.210;21.112;2023-02-20T02:15:20;1.50;94.90
50989;DHT22;37008;52.210;21.112;2023-02-20T02:18:07;1.50;94.80
50989;DHT22;37008;52.210;21.112;2023-02-20T02:20:55;1.50;94.80
50989;DHT22;37008;52.210;21.112;2023-02-20T02:44:14;1.60;94.30
50989;DHT22;37008;52.210;21.112;2023-02-20T02:46:49;1.60;94.20
50989;DHT22;37008;52.210;21.112;2023-02-20T02:49:39;1.60;94.20
50989;DHT22;37008;52.210;21.112;2023-02-20T02:52:08;1.60;94.20
50989;DHT22;37008;52.210;21.112;2023-02-20T02:54:35;1.60;94.10
50989;DHT22;37008;52.210;21.112;2023-02-20T02:57:23;1.60;94.20
50989;DHT22;37008;52.210;21.112;2023-02-20T02:59:53;1.60;94.30
50989;DHT22;37008;52.210;21.112;2023-02-20T03:02:22;1.60;94.70
50989;DHT22;37008;52.210;21.112;2023-02-20T03:04:51;1.50;94.50
50989;DHT22;37008;52.210;21.112;2023-02-20T03:07:18;1.50;94.50
50989;DHT22;37008;52.210;21.112;2023-02-20T03:10:06;1.50;94.60
50989;DHT22;37008;52.210;21.112;2023-02-20T03:15:45;1.50;94.70
50989;DHT22;37008;52.210;21.112;2023-02-20T03:18:35;1.50;94.70
50989;DHT22;37008;52.210;21.112;2023-02-20T03:21:27;1.50;94.70
50989;DHT22;37008;52.210;21.112;2023-02-20T03:24:00;1.50;94.80
50989;DHT22;37008;52.210;21.112;2023-02-20T03:26:33;1.60;94.80
50989;DHT22;37008;52.210;21.112;2023-02-20T03:29:29;1.50;94.80
50989;DHT22;37008;52.210;21.112;2023-02-20T03:32:12;1.50;94.90
50989;DHT22;37008;52.210;21.112;2023-02-20T03:35:17;1.50;95.00
50989;DHT22;37008;52.210;21.112;2023-02-20T03:38:23;1.40;95.00
50989;DHT22;37008;52.210;21.112;2023-02-20T03:41:09;1.40;95.20
50989;DHT22;37008;52.210;21.112;2023-02-20T03:44:31;1.40;95.30
50989;DHT22;37008;52.210;21.112;2023-02-20T03:47:17;1.40;95.60
50989;DHT22;37008;52.210;21.112;2023-02-20T03:49:45;1.30;95.70
50989;DHT22;37008;52.210;21.112;2023-02-20T03:52:48;1.30;95.80
50989;DHT22;37008;52.210;21.112;2023-02-20T03:58:39;1.30;95.90
50989;DHT22;37008;52.210;21.112;2023-02-20T04:01:07;1.30;96.00
50989;DHT22;37008;52.210;21.112;2023-02-20T04:03:39;1.30;96.20
50989;DHT22;37008;52.210;21.112;2023-02-20T04:06:07;1.30;96.30
50989;DHT22;37008;52.210;21.112;2023-02-20T04:08:43;1.30;96.30
50989;DHT22;37008;52.210;21.112;2023-02-20T04:14:25;1.30;96.30
50989;DHT22;37008;52.210;21.112;2023-02-20T04:17:11;1.30;96.40
50989;DHT22;37008;52.210;21.112;2023-02-20T04:20:08;1.30;96.40
50989;DHT22;37008;52.210;21.112;2023-02-20T04:25:41;1.30;96.40
50989;DHT22;37008;52.210;21.112;2023-02-20T04:28:23;1.30;96.50
50989;DHT22;37008;52.210;21.112;2023-02-20T04:31:10;1.20;96.50
50989;DHT22;37008;52.210;21.112;2023-02-20T04:33:43;1.20;96.80
50989;DHT22;37008;52.210;21.112;2023-02-20T04:36:18;1.20;97.10
50989;DHT22;37008;52.210;21.112;2023-02-20T04:39:03;1.20;97.20
50989;DHT22;37008;52.210;21.112;2023-02-20T04:44:44;1.20;97.30
50989;DHT22;37008;52.210;21.112;2023-02-20T04:47:16;1.20;97.40
50989;DHT22;37008;52.210;21.112;2023-02-20T04:50:00;1.20;97.60
50989;DHT22;37008;52.210;21.112;2023-02-20T04:52:26;1.20;97.80
50989;DHT22;37008;52.210;21.112;2023-02-20T04:57:55;1.20;98.00
50989;DHT22;37008;52.210;21.112;2023-02-20T05:03:43;1.20;98.30
50989;DHT22;37008;52.210;21.112;2023-02-20T05:06:08;1.20;98.30
50989;DHT22;37008;52.210;21.112;2023-02-20T05:11:42;1.30;98.50
50989;DHT22;37008;52.210;21.112;2023-02-20T05:16:54;1.30;99.00
50989;DHT22;37008;52.210;21.112;2023-02-20T05:19:20;1.30;99.10
50989;DHT22;37008;52.210;21.112;2023-02-20T05:21:46;1.40;99.20
50989;DHT22;37008;52.210;21.112;2023-02-20T05:25:00;1.40;99.10
50989;DHT22;37008;52.210;21.112;2023-02-20T05:30:10;1.40;99.30
50989;DHT22;37008;52.210;21.112;2023-02-20T05:32:55;1.50;99.30
50989;DHT22;37008;52.210;21.112;2023-02-20T05:35:20;1.50;99.60
50989;DHT22;37008;52.210;21.112;2023-02-20T05:37:52;1.50;99.50
50989;DHT22;37008;52.210;21.112;2023-02-20T05:40:33;1.50;99.60
50989;DHT22;37008;52.210;21.112;2023-02-20T05:43:23;1.50;99.60
50989;DHT22;37008;52.210;21.112;2023-02-20T05:45:50;1.50;99.70
50989;DHT22;37008;52.210;21.112;2023-02-20T05:48:18;1.50;99.80
50989;DHT22;37008;52.210;21.112;2023-02-20T05:51:03;1.50;99.90
50989;DHT22;37008;52.210;21.112;2023-02-20T05:53:41;1.60;99.90
50989;DHT22;37008;52.210;21.112;2023-02-20T05:56:07;1.60;99.90
50989;DHT22;37008;52.210;21.112;2023-02-20T05:58:34;1.60;99.90
50989;DHT22;37008;52.210;21.112;2023-02-20T06:01:29;1.70;99.90
50989;DHT22;37008;52.210;21.112;2023-02-20T06:04:17;1.70;99.90
50989;DHT22;37008;52.210;21.112;2023-02-20T06:07:01;1.70;99.90
50989;DHT22;37008;52.210;21.112;2023-02-20T06:09:51;1.70;99.90
50989;DHT22;37008;52.210;21.112;2023-02-20T06:12:35;1.70;99.80
50989;DHT22;37008;52.210;21.112;2023-02-20T06:15:24;1.70;99.70
50989;DHT22;37008;52.210;21.112;2023-02-20T06:17:52;1.80;99.60
50989;DHT22;37008;52.210;21.112;2023-02-20T06:23:26;1.80;99.40
50989;DHT22;37008;52.210;21.112;2023-02-20T06:25:52;1.80;99.40
50989;DHT22;37008;52.210;21.112;2023-02-20T06:28:18;1.90;99.40
50989;DHT22;37008;52.210;21.112;2023-02-20T06:31:24;1.90;99.40
50989;DHT22;37008;52.210;21.112;2023-02-20T06:34:09;1.90;99.30
50989;DHT22;37008;52.210;21.112;2023-02-20T06:36:59;2.00;99.30
50989;DHT22;37008;52.210;21.112;2023-02-20T06:39:51;2.00;99.20
50989;DHT22;37008;52.210;21.112;2023-02-20T06:43:00;2.10;99.30
50989;DHT22;37008;52.210;21.112;2023-02-20T06:45:27;2.10;99.20
50989;DHT22;37008;52.210;21.112;2023-02-20T06:47:52;2.10;99.10
50989;DHT22;37008;52.210;21.112;2023-02-20T06:50:52;2.20;99.10
50989;DHT22;37008;52.210;21.112;2023-02-20T06:53:29;2.20;99.00
50989;DHT22;37008;52.210;21.112;2023-02-20T06:56:48;2.30;98.80
50989;DHT22;37008;52.210;21.112;2023-02-20T06:59:37;2.30;98.80
50989;DHT22;37008;52.210;21.112;2023-02-20T07:02:22;2.40;98.70
50989;DHT22;37008;52.210;21.112;2023-02-20T07:05:06;2.50;98.70
50989;DHT22;37008;52.210;21.112;2023-02-20T07:11:29;2.60;98.40
50989;DHT22;37008;52.210;21.112;2023-02-20T07:13:59;2.70;98.10
50989;DHT22;37008;52.210;21.112;2023-02-20T07:16:39;2.70;97.90
50989;DHT22;37008;52.210;21.112;2023-02-20T07:19:05;2.80;97.90
50989;DHT22;37008;52.210;21.112;2023-02-20T07:21:31;2.90;97.80
50989;DHT22;37008;52.210;21.112;2023-02-20T07:23:57;2.90;97.70
50989;DHT22;37008;52.210;21.112;2023-02-20T07:26:25;3.00;97.70
50989;DHT22;37008;52.210;21.112;2023-02-20T07:28:52;3.10;97.50
50989;DHT22;37008;52.210;21.112;2023-02-20T07:31:18;3.10;97.30
50989;DHT22;37008;52.210;21.112;2023-02-20T07:33:44;3.20;97.00
50989;DHT22;37008;52.210;21.112;2023-02-20T07:36:13;3.20;96.60
50989;DHT22;37008;52.210;21.112;2023-02-20T07:38:39;3.30;96.70
50989;DHT22;37008;52.210;21.112;2023-02-20T07:41:06;3.40;96.60
50989;DHT22;37008;52.210;21.112;2023-02-20T07:43:32;3.40;96.20
50989;DHT22;37008;52.210;21.112;2023-02-20T07:45:57;3.50;96.50
50989;DHT22;37008;52.210;21.112;2023-02-20T07:48:23;3.60;95.80
50989;DHT22;37008;52.210;21.112;2023-02-20T07:50:49;3.60;95.30
50989;DHT22;37008;52.210;21.112;2023-02-20T07:53:18;3.50;95.40
50989;DHT22;37008;52.210;21.112;2023-02-20T07:55:44;3.60;95.30
50989;DHT22;37008;52.210;21.112;2023-02-20T07:58:09;3.60;95.10
50989;DHT22;37008;52.210;21.112;2023-02-20T08:00:36;3.70;95.20
50989;DHT22;37008;52.210;21.112;2023-02-20T08:03:02;3.70;95.00
50989;DHT22;37008;52.210;21.112;2023-02-20T08:05:27;3.80;94.90
50989;DHT22;37008;52.210;21.112;2023-02-20T08:07:54;3.90;94.80
50989;DHT22;37008;52.210;21.112;2023-02-20T08:10:24;3.90;94.70
50989;DHT22;37008;52.210;21.112;2023-02-20T08:12:50;3.90;94.50
50989;DHT22;37008;52.210;21.112;2023-02-20T08:15:17;4.00;94.30
50989;DHT22;37008;52.210;21.112;2023-02-20T08:17:43;4.00;94.20
50989;DHT22;37008;52.210;21.112;2023-02-20T08:20:10;4.10;94.00
50989;DHT22;37008;52.210;21.112;2023-02-20T08:22:36;4.10;93.90
50989;DHT22;37008;52.210;21.112;2023-02-20T08:25:03;4.20;93.80
50989;DHT22;37008;52.210;21.112;2023-02-20T08:27:29;4.20;93.70
50989;DHT22;37008;52.210;21.112;2023-02-20T08:29:55;4.30;93.80
50989;DHT22;37008;52.210;21.112;2023-02-20T08:32:20;4.30;93.70
50989;DHT22;37008;52.210;21.112;2023-02-20T08:34:46;4.30;93.60
50989;DHT22;37008;52.210;21.112;2023-02-20T08:37:12;4.30;93.70
50989;DHT22;37008;52.210;21.112;2023-02-20T08:39:37;4.30;94.00
50989;DHT22;37008;52.210;21.112;2023-02-20T08:42:03;4.20;94.40
50989;DHT22;37008;52.210;21.112;2023-02-20T08:44:29;4.10;94.90
50989;DHT22;37008;52.210;21.112;2023-02-20T08:46:54;4.10;95.80
50989;DHT22;37008;52.210;21.112;2023-02-20T08:49:20;4.00;96.50
50989;DHT22;37008;52.210;21.112;2023-02-20T08:51:47;3.80;97.30
50989;DHT22;37008;52.210;21.112;2023-02-20T08:54:14;3.70;98.40
50989;DHT22;37008;52.210;21.112;2023-02-20T08:56:41;3.60;99.60
50989;DHT22;37008;52.210;21.112;2023-02-20T08:59:07;3.50;99.90
50989;DHT22;37008;52.210;21.112;2023-02-20T09:01:33;3.30;99.90
50989;DHT22;37008;52.210;21.112;2023-02-20T09:03:58;3.20;99.90
50989;DHT22;37008;52.210;21.112;2023-02-20T09:06:24;3.10;99.90
50989;DHT22;37008;52.210;21.112;2023-02-20T09:08:51;3.00;99.90
50989;DHT22;37008;52.210;21.112;2023-02-20T09:11:17;2.90;99.90
50989;DHT22;37008;52.210;21.112;2023-02-20T09:13:44;2.80;99.90
50989;DHT22;37008;52.210;21.112;2023-02-20T09:16:14;2.80;99.90
50989;DHT22;37008;52.210;21.112;2023-02-20T09:18:40;2.80;99.90
50989;DHT22;37008;52.210;21.112;2023-02-20T09:21:10;2.70;99.90
50989;DHT22;37008;52.210;21.112;2023-02-20T09:23:36;2.60;99.90
50989;DHT22;37008;52.210;21.112;2023-02-20T09:26:02;2.60;99.90
50989;DHT22;37008;52.210;21.112;2023-02-20T09:28:28;2.60;99.90
50989;DHT22;37008;52.210;21.112;2023-02-20T09:30:54;2.60;99.90
50989;DHT22;37008;52.210;21.112;2023-02-20T09:33:21;2.60;99.90
50989;DHT22;37008;52.210;21.112;2023-02-20T09:35:47;2.60;99.90
50989;DHT22;37008;52.210;21.112;2023-02-20T09:38:16;2.60;99.90
50989;DHT22;37008;52.210;21.112;2023-02-20T09:40:43;2.60;99.90
50989;DHT22;37008;52.210;21.112;2023-02-20T09:43:27;2.70;99.90
50989;DHT22;37008;52.210;21.112;2023-02-20T09:46:19;2.70;99.90
50989;DHT22;37008;52.210;21.112;2023-02-20T09:48:48;2.70;99.90
50989;DHT22;37008;52.210;21.112;2023-02-20T09:51:19;2.70;99.90
50989;DHT22;37008;52.210;21.112;2023-02-20T09:56:41;2.70;99.90
50989;DHT22;37008;52.210;21.112;2023-02-20T09:59:18;2.70;99.90
50989;DHT22;37008;52.210;21.112;2023-02-20T10:02:14;2.70;99.90
50989;DHT22;37008;52.210;21.112;2023-02-20T10:04:49;2.70;99.90
50989;DHT22;37008;52.210;21.112;2023-02-20T10:07:23;2.70;99.90
50989;DHT22;37008;52.210;21.112;2023-02-20T10:09:50;2.70;99.90
50989;DHT22;37008;52.210;21.112;2023-02-20T10:12:25;2.70;99.90
50989;DHT22;37008;52.210;21.112;2023-02-20T10:20:54;2.60;99.90
50989;DHT22;37008;52.210;21.112;2023-02-20T10:23:50;2.50;99.90
50989;DHT22;37008;52.210;21.112;2023-02-20T10:26:29;2.40;99.90
50989;DHT22;37008;52.210;21.112;2023-02-20T10:29:08;2.30;99.90
50989;DHT22;37008;52.210;21.112;2023-02-20T10:31:59;2.20;99.90
50989;DHT22;37008;52.210;21.112;2023-02-20T10:34:37;2.00;99.90
50989;DHT22;37008;52.210;21.112;2023-02-20T10:37:12;2.00;99.90
50989;DHT22;37008;52.210;21.112;2023-02-20T10:39:41;2.00;99.90
50989;DHT22;37008;52.210;21.112;2023-02-20T10:42:13;1.90;99.90
50989;DHT22;37008;52.210;21.112;2023-02-20T10:47:46;1.80;99.90
50989;DHT22;37008;52.210;21.112;2023-02-20T10:50:16;1.80;99.90
50989;DHT22;37008;52.210;21.112;2023-02-20T10:52:56;1.80;99.90
50989;DHT22;37008;52.210;21.112;2023-02-20T10:58:29;1.90;99.90
50989;DHT22;37008;52.210;21.112;2023-02-20T11:00:53;1.90;99.90
50989;DHT22;37008;52.210;21.112;2023-02-20T11:03:57;1.90;99.90
50989;DHT22;37008;52.210;21.112;2023-02-20T11:06:30;1.90;99.90
50989;DHT22;37008;52.210;21.112;2023-02-20T11:08:56;1.90;99.90
50989;DHT22;37008;52.210;21.112;2023-02-20T11:11:32;1.90;99.90
50989;DHT22;37008;52.210;21.112;2023-02-20T11:14:19;1.90;99.90
50989;DHT22;37008;52.210;21.112;2023-02-20T11:16:58;1.80;99.90
50989;DHT22;37008;52.210;21.112;2023-02-20T11:22:18;1.80;99.90
50989;DHT22;37008;52.210;21.112;2023-02-20T11:25:26;1.80;99.90
50989;DHT22;37008;52.210;21.112;2023-02-20T11:27:55;1.70;99.90
50989;DHT22;37008;52.210;21.112;2023-02-20T11:30:27;1.80;99.90
50989;DHT22;37008;52.210;21.112;2023-02-20T11:33:10;1.70;99.90
50989;DHT22;37008;52.210;21.112;2023-02-20T11:35:38;1.70;99.90
50989;DHT22;37008;52.210;21.112;2023-02-20T11:40:39;1.70;99.90
50989;DHT22;37008;52.210;21.112;2023-02-20T11:46:23;1.90;99.90
50989;DHT22;37008;52.210;21.112;2023-02-20T11:49:09;2.00;99.90
50989;DHT22;37008;52.210;21.112;2023-02-20T11:51:46;2.00;99.90
50989;DHT22;37008;52.210;21.112;2023-02-20T11:54:20;2.10;99.90
50989;DHT22;37008;52.210;21.112;2023-02-20T11:59:40;2.30;99.90
50989;DHT22;37008;52.210;21.112;2023-02-20T12:04:41;2.40;99.90
50989;DHT22;37008;52.210;21.112;2023-02-20T12:12:52;2.70;99.90
50989;DHT22;37008;52.210;21.112;2023-02-20T12:15:21;2.80;99.90
50989;DHT22;37008;52.210;21.112;2023-02-20T12:20:34;3.00;99.90
50989;DHT22;37008;52.210;21.112;2023-02-20T12:36:36;3.60;99.90
50989;DHT22;37008;52.210;21.112;2023-02-20T12:47:26;3.90;99.90
50989;DHT22;37008;52.210;21.112;2023-02-20T13:00:33;4.20;99.90
50989;DHT22;37008;52.210;21.112;2023-02-20T13:03:10;4.20;99.90
50989;DHT22;37008;52.210;21.112;2023-02-20T13:05:41;4.30;99.90
50989;DHT22;37008;52.210;21.112;2023-02-20T13:08:21;4.30;99.90
50989;DHT22;37008;52.210;21.112;2023-02-20T13:10:57;4.30;99.90
50989;DHT22;37008;52.210;21.112;2023-02-20T13:13:25;4.30;99.90
50989;DHT22;37008;52.210;21.112;2023-02-20T13:16:11;4.30;99.90
50989;DHT22;37008;52.210;21.112;2023-02-20T13:19:16;4.30;99.90
50989;DHT22;37008;52.210;21.112;2023-02-20T13:21:44;4.40;99.90
50989;DHT22;37008;52.210;21.112;2023-02-20T13:24:33;4.40;99.90
50989;DHT22;37008;52.210;21.112;2023-02-20T13:27:03;4.40;99.90
50989;DHT22;37008;52.210;21.112;2023-02-20T13:29:38;4.50;99.90
50989;DHT22;37008;52.210;21.112;2023-02-20T13:34:41;4.60;99.90
50989;DHT22;37008;52.210;21.112;2023-02-20T13:45:39;4.80;99.90
50989;DHT22;37008;52.210;21.112;2023-02-20T13:53:51;4.90;99.90
50989;DHT22;37008;52.210;21.112;2023-02-20T13:56:23;4.90;99.90
50989;DHT22;37008;52.210;21.112;2023-02-20T13:58:50;5.00;99.90
50989;DHT22;37008;52.210;21.112;2023-02-20T14:01:16;5.10;99.90
50989;DHT22;37008;52.210;21.112;2023-02-20T14:03:42;5.20;99.90
50989;DHT22;37008;52.210;21.112;2023-02-20T14:06:13;5.20;99.90
50989;DHT22;37008;52.210;21.112;2023-02-20T14:08:44;5.30;99.90
50989;DHT22;37008;52.210;21.112;2023-02-20T14:11:32;5.30;99.90
50989;DHT22;37008;52.210;21.112;2023-02-20T14:14:06;5.40;99.90
50989;DHT22;37008;52.210;21.112;2023-02-20T14:16:39;5.40;99.90
50989;DHT22;37008;52.210;21.112;2023-02-20T14:19:23;5.50;99.90
50989;DHT22;37008;52.210;21.112;2023-02-20T14:21:50;5.60;99.90
50989;DHT22;37008;52.210;21.112;2023-02-20T14:24:22;5.60;99.90
50989;DHT22;37008;52.210;21.112;2023-02-20T14:26:49;5.70;99.90
50989;DHT22;37008;52.210;21.112;2023-02-20T14:29:22;5.80;99.90
50989;DHT22;37008;52.210;21.112;2023-02-20T14:31:52;5.80;99.90
50989;DHT22;37008;52.210;21.112;2023-02-20T14:37:11;5.80;99.90
50989;DHT22;37008;52.210;21.112;2023-02-20T14:40:02;5.80;99.90
50989;DHT22;37008;52.210;21.112;2023-02-20T14:42:32;5.90;99.90
50989;DHT22;37008;52.210;21.112;2023-02-20T14:45:02;5.90;99.90
50989;DHT22;37008;52.210;21.112;2023-02-20T14:47:29;5.90;99.90
50989;DHT22;37008;52.210;21.112;2023-02-20T14:50:18;6.00;99.90
50989;DHT22;37008;52.210;21.112;2023-02-20T14:52:44;6.00;99.90
50989;DHT22;37008;52.210;21.112;2023-02-20T14:55:16;6.10;99.90
50989;DHT22;37008;52.210;21.112;2023-02-20T14:57:42;6.10;99.90
50989;DHT22;37008;52.210;21.112;2023-02-20T15:02:34;6.20;99.90
50989;DHT22;37008;52.210;21.112;2023-02-20T15:05:04;6.20;99.90
50989;DHT22;37008;52.210;21.112;2023-02-20T15:07:31;6.30;99.90
50989;DHT22;37008;52.210;21.112;2023-02-20T15:10:00;6.40;99.90
50989;DHT22;37008;52.210;21.112;2023-02-20T15:15:07;6.50;99.90
50989;DHT22;37008;52.210;21.112;2023-02-20T15:17:35;6.50;99.90
50989;DHT22;37008;52.210;21.112;2023-02-20T15:20:16;6.60;99.90
50989;DHT22;37008;52.210;21.112;2023-02-20T15:22:41;6.60;99.90
50989;DHT22;37008;52.210;21.112;2023-02-20T15:27:37;6.70;99.90
50989;DHT22;37008;52.210;21.112;2023-02-20T15:30:12;6.70;99.90
50989;DHT22;37008;52.210;21.112;2023-02-20T15:32:40;6.70;99.90
50989;DHT22;37008;52.210;21.112;2023-02-20T15:35:16;6.70;99.90
50989;DHT22;37008;52.210;21.112;2023-02-20T15:37:43;6.80;99.90
50989;DHT22;37008;52.210;21.112;2023-02-20T15:40:35;6.80;99.90
50989;DHT22;37008;52.210;21.112;2023-02-20T15:43:01;6.80;99.90
50989;DHT22;37008;52.210;21.112;2023-02-20T15:45:28;6.80;99.90
50989;DHT22;37008;52.210;21.112;2023-02-20T15:47:55;6.90;99.90
50989;DHT22;37008;52.210;21.112;2023-02-20T15:50:22;6.80;99.90
50989;DHT22;37008;52.210;21.112;2023-02-20T15:52:47;6.90;99.90
50989;DHT22;37008;52.210;21.112;2023-02-20T15:55:18;7.00;99.90
50989;DHT22;37008;52.210;21.112;2023-02-20T15:57:46;7.00;99.90
50989;DHT22;37008;52.210;21.112;2023-02-20T16:02:50;7.10;99.90
50989;DHT22;37008;52.210;21.112;2023-02-20T16:05:16;7.10;99.90
50989;DHT22;37008;52.210;21.112;2023-02-20T16:07:41;7.10;99.90
50989;DHT22;37008;52.210;21.112;2023-02-20T16:10:08;7.10;99.90
50989;DHT22;37008;52.210;21.112;2023-02-20T16:12:35;7.10;99.90
50989;DHT22;37008;52.210;21.112;2023-02-20T16:15:02;7.20;99.90
50989;DHT22;37008;52.210;21.112;2023-02-20T16:17:32;7.20;99.90
50989;DHT22;37008;52.210;21.112;2023-02-20T16:19:58;7.20;99.90
50989;DHT22;37008;52.210;21.112;2023-02-20T16:22:24;7.20;99.90
50989;DHT22;37008;52.210;21.112;2023-02-20T16:24:49;7.20;99.90
50989;DHT22;37008;52.210;21.112;2023-02-20T16:27:33;7.30;99.90
50989;DHT22;37008;52.210;21.112;2023-02-20T16:29:59;7.30;99.90
50989;DHT22;37008;52.210;21.112;2023-02-20T16:32:26;7.30;99.90
50989;DHT22;37008;52.210;21.112;2023-02-20T16:34:53;7.40;99.90
50989;DHT22;37008;52.210;21.112;2023-02-20T16:37:19;7.40;99.90
50989;DHT22;37008;52.210;21.112;2023-02-20T16:39:45;7.30;99.90
50989;DHT22;37008;52.210;21.112;2023-02-20T16:42:27;7.40;99.90
50989;DHT22;37008;52.210;21.112;2023-02-20T16:44:54;7.40;99.90
50989;DHT22;37008;52.210;21.112;2023-02-20T16:47:22;7.40;99.90
50989;DHT22;37008;52.210;21.112;2023-02-20T16:49:49;7.40;99.90
50989;DHT22;37008;52.210;21.112;2023-02-20T16:52:30;7.50;99.90
50989;DHT22;37008;52.210;21.112;2023-02-20T16:54:57;7.40;99.90
50989;DHT22;37008;52.210;21.112;2023-02-20T16:57:24;7.20;99.90
50989;DHT22;37008;52.210;21.112;2023-02-20T16:59:52;7.00;99.90
50989;DHT22;37008;52.210;21.112;2023-02-20T17:02:21;6.90;99.90
50989;DHT22;37008;52.210;21.112;2023-02-20T17:04:47;6.70;99.90
50989;DHT22;37008;52.210;21.112;2023-02-20T17:07:13;6.60;99.90
50989;DHT22;37008;52.210;21.112;2023-02-20T17:09:40;6.50;99.90
50989;DHT22;37008;52.210;21.112;2023-02-20T17:12:06;6.40;99.90
50989;DHT22;37008;52.210;21.112;2023-02-20T17:14:31;6.30;99.90
50989;DHT22;37008;52.210;21.112;2023-02-20T17:16:57;6.40;99.90
50989;DHT22;37008;52.210;21.112;2023-02-20T17:19:23;6.30;99.90
50989;DHT22;37008;52.210;21.112;2023-02-20T17:21:49;6.30;99.90
50989;DHT22;37008;52.210;21.112;2023-02-20T17:24:16;6.30;99.90
50989;DHT22;37008;52.210;21.112;2023-02-20T17:26:42;6.30;99.90
50989;DHT22;37008;52.210;21.112;2023-02-20T17:29:08;6.30;99.90
50989;DHT22;37008;52.210;21.112;2023-02-20T17:31:34;6.40;99.90
50989;DHT22;37008;52.210;21.112;2023-02-20T17:33:59;6.30;99.90
50989;DHT22;37008;52.210;21.112;2023-02-20T17:36:25;6.30;99.90
50989;DHT22;37008;52.210;21.112;2023-02-20T17:38:50;6.30;99.90
50989;DHT22;37008;52.210;21.112;2023-02-20T17:41:17;6.40;99.90
50989;DHT22;37008;52.210;21.112;2023-02-20T17:43:43;6.40;99.90
50989;DHT22;37008;52.210;21.112;2023-02-20T17:46:10;6.40;99.90
50989;DHT22;37008;52.210;21.112;2023-02-20T17:48:35;6.50;99.90
50989;DHT22;37008;52.210;21.112;2023-02-20T17:51:01;6.50;99.90
50989;DHT22;37008;52.210;21.112;2023-02-20T17:53:27;6.50;99.90
50989;DHT22;37008;52.210;21.112;2023-02-20T17:55:52;6.50;99.90
50989;DHT22;37008;52.210;21.112;2023-02-20T17:58:18;6.40;99.90
50989;DHT22;37008;52.210;21.112;2023-02-20T18:00:43;6.50;99.90
50989;DHT22;37008;52.210;21.112;2023-02-20T18:03:10;6.50;99.90
50989;DHT22;37008;52.210;21.112;2023-02-20T18:05:36;6.50;99.90
50989;DHT22;37008;52.210;21.112;2023-02-20T18:08:02;6.50;99.90
50989;DHT22;37008;52.210;21.112;2023-02-20T18:10:27;6.50;99.90
50989;DHT22;37008;52.210;21.112;2023-02-20T18:12:53;6.50;99.90
50989;DHT22;37008;52.210;21.112;2023-02-20T18:15:32;6.50;99.90
50989;DHT22;37008;52.210;21.112;2023-02-20T18:17:59;6.50;99.90
50989;DHT22;37008;52.210;21.112;2023-02-20T18:20:25;6.50;99.90
50989;DHT22;37008;52.210;21.112;2023-02-20T18:22:51;6.60;99.90
50989;DHT22;37008;52.210;21.112;2023-02-20T18:25:17;6.60;99.90
50989;DHT22;37008;52.210;21.112;2023-02-20T18:27:46;6.60;99.90
50989;DHT22;37008;52.210;21.112;2023-02-20T18:30:11;6.60;99.90
50989;DHT22;37008;52.210;21.112;2023-02-20T18:32:39;6.60;99.90
50989;DHT22;37008;52.210;21.112;2023-02-20T18:35:05;6.50;99.90
50989;DHT22;37008;52.210;21.112;2023-02-20T18:37:30;6.50;99.90